Time;durP1;ratioP1;P1;durP2;ratioP2;P2;SDS_P1;SDS_P2;PMS_P1;PMS_P2;Temp;Humidity;BMP_temperature;BMP_pressure;BME280_temperature;BME280_humidity;BME280_pressure;Samples;Min_cycle;Max_cycle;Signal;HPM_P1;HPM_P2
2022/06/14 00:01:05;;;;;;;23.50;6.73;;;;;;;22.55;98.52;101061.03;6215740;23;20407;-89
2022/06/14 00:03:37;;;;;;;16.80;5.90;;;;;;;22.53;98.99;101054.88;6140908;23;20492;-90
2022/06/14 00:06:10;;;;;;;20.73;6.50;;;;;;;22.55;99.52;101049.06;6165258;23;20411;-90
2022/06/14 00:08:38;;;;;;;16.23;7.17;;;;;;;22.61;98.75;101064.72;6166205;23;20413;-89
2022/06/14 00:11:30;;;;;;;20.50;6.07;;;;;;;22.48;99.44;101059.59;6140839;23;20395;-89
2022/06/14 00:13:58;;;;;;;21.13;7.20;;;;;;;22.51;99.30;101071.06;6169624;23;20414;-89
2022/06/14 00:16:27;;;;;;;18.97;7.53;;;;;;;22.56;98.99;101068.28;6141066;23;20403;-90
2022/06/14 00:18:55;;;;;;;21.77;6.80;;;;;;;22.58;98.85;101060.50;6141031;23;20399;-90
2022/06/14 00:21:25;;;;;;;19.37;6.30;;;;;;;22.59;98.51;101073.34;6165389;23;20388;-89
2022/06/14 00:23:53;;;;;;;11.90;6.10;;;;;;;22.50;98.72;101058.25;6165135;23;20478;-89
2022/06/14 00:26:20;;;;;;;16.40;8.17;;;;;;;22.51;98.66;101059.06;6165407;23;20388;-90
2022/06/14 00:28:48;;;;;;;17.30;6.60;;;;;;;22.51;98.78;101057.13;6163356;23;20410;-89
2022/06/14 00:31:21;;;;;;;23.57;8.27;;;;;;;22.51;98.88;101048.78;6165209;23;20465;-89
2022/06/14 00:33:50;;;;;;;18.67;7.60;;;;;;;22.50;98.72;101057.41;6167149;23;20786;-89
2022/06/14 00:36:22;;;;;;;31.57;8.20;;;;;;;22.52;98.65;101053.22;6165984;23;20403;-89
2022/06/14 00:38:51;;;;;;;14.57;6.63;;;;;;;22.39;98.04;101045.31;6164900;23;20411;-90
2022/06/14 00:41:39;;;;;;;20.03;7.13;;;;;;;22.40;98.32;101055.34;6165471;23;20470;-89
2022/06/14 00:44:18;;;;;;;20.13;6.73;;;;;;;22.38;98.40;101063.13;6189971;23;20455;-89
2022/06/14 00:47:14;;;;;;;14.63;6.50;;;;;;;22.29;98.42;101059.16;6167395;23;20406;-88
2022/06/14 00:49:43;;;;;;;11.33;6.57;;;;;;;22.30;98.42;101058.88;6187850;23;20459;-89
2022/06/14 00:52:42;;;;;;;13.17;6.57;;;;;;;22.31;98.33;101055.00;6189146;23;20453;-89
2022/06/14 00:56:11;;;;;;;15.70;6.50;;;;;;;22.31;98.20;101054.16;6136061;23;20781;-89
2022/06/14 00:58:44;;;;;;;12.67;5.83;;;;;;;22.30;98.25;101046.91;6082284;23;20436;-89
2022/06/14 01:01:19;;;;;;;19.43;6.90;;;;;;;22.32;98.04;101058.63;6024950;23;20388;-89
2022/06/14 01:03:53;;;;;;;17.03;6.67;;;;;;;22.35;97.69;101047.78;6024480;23;20450;-90
2022/06/14 01:06:43;;;;;;;19.23;6.77;;;;;;;22.37;97.66;101065.06;6071550;23;20411;-89
2022/06/14 01:09:45;;;;;;;15.90;7.20;;;;;;;22.38;97.44;101054.75;6047756;23;20407;-89
2022/06/14 01:12:19;;;;;;;18.67;6.80;;;;;;;22.35;97.56;101044.16;6043311;23;21015;-89
2022/06/14 01:15:19;;;;;;;16.50;5.73;;;;;;;22.30;97.83;101041.34;6047963;23;20406;-89
2022/06/14 01:17:49;;;;;;;24.50;6.57;;;;;;;22.25;98.21;101030.16;6071033;23;20399;-91
2022/06/14 01:20:18;;;;;;;14.00;5.37;;;;;;;22.30;97.62;101036.59;6024758;23;20407;-89
2022/06/14 01:22:48;;;;;;;15.03;7.40;;;;;;;22.29;97.70;101022.94;6047427;23;20438;-89
2022/06/14 01:25:19;;;;;;;10.37;5.37;;;;;;;22.32;96.67;101019.63;6070659;23;20411;-90
2022/06/14 01:27:48;;;;;;;15.73;6.80;;;;;;;22.29;96.51;101014.59;6070905;23;20410;-89
2022/06/14 01:30:21;;;;;;;18.33;6.57;;;;;;;22.29;96.33;101011.81;6047889;23;20406;-89
2022/06/14 01:33:20;;;;;;;21.03;7.43;;;;;;;22.27;95.82;101014.84;6087386;23;20478;-89
2022/06/14 01:35:56;;;;;;;15.20;5.70;;;;;;;22.26;96.15;101006.75;6161606;23;20881;-89
2022/06/14 01:38:23;;;;;;;21.10;6.40;;;;;;;22.25;96.17;101007.88;6188386;23;20407;-90
2022/06/14 01:41:04;;;;;;;18.63;5.57;;;;;;;22.23;95.48;101002.56;6114174;23;20408;-89
2022/06/14 01:43:53;;;;;;;16.37;6.07;;;;;;;22.22;95.60;101003.66;6137185;23;20455;-90
2022/06/14 01:46:24;;;;;;;12.87;5.60;;;;;;;22.19;94.94;101000.56;6188023;23;20400;-89
2022/06/14 01:52:27;;;;;;;9.73;5.33;;;;;;;22.10;94.55;100996.59;6166057;23;20411;-90
2022/06/14 01:55:22;;;;;;;12.27;6.33;;;;;;;22.11;94.75;100998.28;6156070;23;20404;-89
2022/06/14 01:57:59;;;;;;;12.57;6.10;;;;;;;22.09;94.86;101000.47;6153117;23;20454;-90
2022/06/14 02:00:30;;;;;;;9.70;5.87;;;;;;;22.09;94.94;101008.84;6161178;23;20384;-90
2022/06/14 02:05:54;;;;;;;13.23;5.90;;;;;;;22.10;95.82;101008.56;6145279;23;20447;-89
2022/06/14 02:08:24;;;;;;;15.00;5.33;;;;;;;22.08;96.09;101004.38;6114016;23;20399;-89
2022/06/14 02:10:59;;;;;;;12.90;6.27;;;;;;;22.04;96.05;101004.88;6136494;23;20439;-89
2022/06/14 02:13:46;;;;;;;12.83;5.30;;;;;;;22.01;95.49;100994.28;6138506;23;20431;-90
2022/06/14 02:16:57;;;;;;;12.90;5.67;;;;;;;21.90;93.86;100998.03;6140674;23;20407;-89
2022/06/14 02:19:59;;;;;;;13.53;4.90;;;;;;;21.71;93.65;100988.38;5999864;23;20396;-89
2022/06/14 02:22:35;;;;;;;15.40;5.83;;;;;;;21.68;94.19;100994.47;5997088;23;20411;-90
2022/06/14 02:25:08;;;;;;;8.80;5.10;;;;;;;21.62;94.78;100987.16;6015542;23;20903;-89
2022/06/14 02:27:42;;;;;;;9.93;5.40;;;;;;;21.61;94.75;100991.03;5969094;23;20409;-88
2022/06/14 02:30:21;;;;;;;14.57;5.57;;;;;;;21.59;94.83;100991.28;6014458;23;20401;-89
2022/06/14 02:32:56;;;;;;;14.27;4.97;;;;;;;21.59;95.41;100991.28;6015758;23;20408;-89
2022/06/14 02:35:31;;;;;;;11.30;5.30;;;;;;;21.57;95.49;100984.31;5992394;23;20942;-89
2022/06/14 02:38:11;;;;;;;14.70;5.80;;;;;;;21.56;95.56;100979.84;5993086;23;20442;-89
2022/06/14 02:40:47;;;;;;;13.00;4.97;;;;;;;21.56;95.52;100979.84;5993219;23;20895;-90
2022/06/14 02:43:25;;;;;;;13.10;5.17;;;;;;;21.51;95.98;100980.66;5991218;23;20456;-87
2022/06/14 02:46:14;;;;;;;17.17;6.60;;;;;;;21.47;95.82;100968.34;6016367;23;20528;-87
2022/06/14 02:49:11;;;;;;;10.17;5.80;;;;;;;21.51;96.20;100977.03;5994221;23;20813;-86
2022/06/14 02:51:54;;;;;;;12.87;4.90;;;;;;;21.49;96.85;100976.44;6150661;23;20456;-86
2022/06/14 02:54:27;;;;;;;9.47;5.33;;;;;;;21.54;96.71;100982.06;6110215;23;20400;-89
2022/06/14 02:57:17;;;;;;;14.03;5.57;;;;;;;21.52;96.92;100973.97;6107382;23;20409;-88
2022/06/14 02:59:51;;;;;;;14.27;5.80;;;;;;;21.52;96.88;100989.81;6106778;23;20405;-89
2022/06/14 03:02:50;;;;;;;12.17;5.47;;;;;;;21.53;96.90;100994.28;6132734;23;20392;-89
2022/06/14 03:06:07;;;;;;;12.43;4.90;;;;;;;21.55;96.65;100994.88;6154427;23;20452;-89
2022/06/14 03:09:06;;;;;;;10.13;5.30;;;;;;;21.55;96.39;100994.88;6014457;23;20409;-95
2022/06/14 03:12:06;;;;;;;13.43;6.00;;;;;;;21.52;95.90;101003.72;5991835;23;20896;-89
2022/06/14 03:14:48;;;;;;;14.20;5.57;;;;;;;21.48;95.35;100999.78;5994147;23;20475;-89
2022/06/14 03:17:46;;;;;;;15.00;5.83;;;;;;;21.49;95.29;101012.59;6016530;23;20784;-89
2022/06/14 03:20:42;;;;;;;14.07;6.53;;;;;;;21.49;96.34;101007.88;6014374;23;20424;-89
2022/06/14 03:23:24;;;;;;;19.63;6.10;;;;;;;21.49;96.55;101012.59;6014289;23;20450;-89
2022/06/14 03:26:13;;;;;;;12.27;5.53;;;;;;;21.43;96.29;101013.63;6038144;23;20408;-89
2022/06/14 03:28:53;;;;;;;16.47;5.83;;;;;;;21.38;96.46;101023.56;6014460;23;20412;-89
2022/06/14 03:31:31;;;;;;;11.70;5.80;;;;;;;21.33;96.04;101028.25;6014091;23;20448;-88
2022/06/14 03:34:13;;;;;;;11.63;5.90;;;;;;;21.28;95.96;101037.38;6014312;23;20404;-88
2022/06/14 03:36:41;;;;;;;9.10;5.83;;;;;;;21.26;96.45;101031.22;6015129;23;20463;-89
2022/06/14 03:39:10;;;;;;;18.30;6.33;;;;;;;21.22;96.97;101021.69;5990968;23;20412;-89
2022/06/14 03:41:43;;;;;;;16.40;6.60;;;;;;;21.17;96.70;101027.16;5991269;23;20437;-89
2022/06/14 03:44:11;;;;;;;15.87;6.70;;;;;;;21.11;97.42;101028.19;6030699;23;20455;-89
2022/06/14 03:46:41;;;;;;;21.40;7.17;;;;;;;21.11;97.25;101038.47;6133521;23;20727;-89
2022/06/14 03:49:14;;;;;;;20.97;8.37;;;;;;;21.05;98.28;101037.56;6160627;23;20423;-89
2022/06/14 03:52:13;;;;;;;26.10;8.30;;;;;;;21.04;99.02;101050.59;6111817;23;20450;-88
2022/06/14 03:54:56;;;;;;;20.93;8.73;;;;;;;21.06;99.82;101055.91;6160123;23;20490;-89
2022/06/14 03:57:47;;;;;;;23.00;8.87;;;;;;;21.08;99.64;101044.53;6136002;23;20416;-89
2022/06/14 04:00:21;;;;;;;33.07;10.53;;;;;;;21.09;99.85;101049.84;6163568;23;20400;-88
2022/06/14 04:03:12;;;;;;;24.77;9.53;;;;;;;21.15;100.00;101065.50;6137513;23;20423;-89
2022/06/14 04:06:04;;;;;;;36.63;10.20;;;;;;;21.16;100.00;101060.78;6160566;23;20408;-89
2022/06/14 04:08:50;;;;;;;37.37;10.50;;;;;;;21.19;100.00;101069.44;6160081;23;20408;-90
2022/06/14 04:12:01;;;;;;;23.73;8.93;;;;;;;21.21;100.00;101072.84;6161314;23;20420;-89
2022/06/14 04:14:50;;;;;;;34.67;10.20;;;;;;;21.22;100.00;101068.97;6159860;23;20879;-90
2022/06/14 04:17:25;;;;;;;24.67;10.70;;;;;;;21.24;100.00;101065.94;6161497;23;20404;-89
2022/06/14 04:20:26;;;;;;;36.50;10.77;;;;;;;21.22;100.00;101057.84;6161202;23;20403;-89
2022/06/14 04:23:13;;;;;;;33.17;11.00;;;;;;;21.22;100.00;101063.41;6138846;23;20425;-90
2022/06/14 04:25:44;;;;;;;35.07;10.70;;;;;;;21.20;100.00;101051.69;6163338;23;20404;-90
2022/06/14 04:28:28;;;;;;;41.10;11.50;;;;;;;21.25;100.00;101040.66;6140583;23;20498;-89
2022/06/14 04:31:32;;;;;;;43.43;11.47;;;;;;;21.19;100.00;101043.56;6164881;23;20434;-89
2022/06/14 04:34:20;;;;;;;53.37;11.90;;;;;;;21.13;100.00;101050.19;6066205;23;20442;-90
2022/06/14 04:36:58;;;;;;;32.47;11.40;;;;;;;21.11;100.00;101050.44;6135591;23;20412;-89
2022/06/14 04:39:31;;;;;;;38.93;11.17;;;;;;;21.08;100.00;101050.94;6161001;23;20433;-89
2022/06/14 04:42:10;;;;;;;37.97;10.50;;;;;;;21.01;100.00;101028.88;6136507;23;20408;-89
2022/06/14 04:44:43;;;;;;;30.00;10.90;;;;;;;21.02;100.00;101030.56;6136096;23;20624;-89
2022/06/14 04:47:26;;;;;;;38.37;12.47;;;;;;;21.04;100.00;101033.09;6160904;23;20388;-90
2022/06/14 04:50:27;;;;;;;41.47;12.37;;;;;;;21.06;100.00;101042.00;6137879;23;20700;-93
2022/06/14 04:52:58;;;;;;;43.47;11.93;;;;;;;21.02;100.00;101021.38;6137498;23;20415;-93
2022/06/14 04:55:54;;;;;;;29.53;11.40;;;;;;;21.03;100.00;101026.69;6137248;23;20440;-93
2022/06/14 04:59:01;;;;;;;42.77;11.87;;;;;;;21.03;100.00;101025.84;6018478;23;20416;-93
2022/06/14 05:01:48;;;;;;;35.30;11.30;;;;;;;20.95;100.00;101023.53;6015110;23;20416;-93
2022/06/14 05:04:55;;;;;;;45.77;12.20;;;;;;;21.02;100.00;101035.28;5994071;23;20889;-93
2022/06/14 05:07:52;;;;;;;39.57;11.67;;;;;;;20.99;100.00;101022.72;6015410;23;20412;-91
2022/06/14 05:10:42;;;;;;;31.73;11.43;;;;;;;20.94;100.00;101028.25;5993956;23;21030;-92
2022/06/14 05:13:18;;;;;;;32.30;11.90;;;;;;;21.00;100.00;101027.19;6018334;23;20415;-92
2022/06/14 05:16:30;;;;;;;34.07;11.20;;;;;;;20.93;100.00;101037.66;5994483;23;20408;-93
2022/06/14 05:19:19;;;;;;;39.80;11.40;;;;;;;20.90;100.00;101037.34;6016964;23;20899;-93
2022/06/14 05:21:48;;;;;;;38.53;12.77;;;;;;;20.90;100.00;101032.63;6012413;23;20408;-90
2022/06/14 05:24:45;;;;;;;35.07;11.80;;;;;;;20.95;100.00;101045.75;6016580;23;20512;-90
2022/06/14 05:30:35;;;;;;;45.90;13.07;;;;;;;20.95;100.00;101056.88;6055028;23;20412;-88
2022/06/14 05:33:20;;;;;;;30.33;11.80;;;;;;;20.97;100.00;101054.69;6013378;23;20503;-89
2022/06/14 05:35:53;;;;;;;35.10;11.40;;;;;;;20.96;100.00;101058.56;6096064;23;20399;-89
2022/06/14 05:41:35;;;;;;;40.93;12.63;;;;;;;21.00;100.00;101065.25;6188633;23;20404;-90
2022/06/14 05:44:06;;;;;;;35.57;12.20;;;;;;;20.86;100.00;101041.72;6137635;23;20443;-89
2022/06/14 05:46:53;;;;;;;43.83;11.40;;;;;;;20.97;100.00;101060.25;6140516;23;20720;-90
2022/06/14 05:49:28;;;;;;;26.80;11.97;;;;;;;20.97;100.00;101052.72;6138461;23;20407;-90
2022/06/14 05:52:39;;;;;;;37.20;11.23;;;;;;;20.93;100.00;101037.66;6140551;23;20404;-89
2022/06/14 05:55:25;;;;;;;28.57;10.10;;;;;;;21.07;100.00;101049.25;6143001;23;20879;-89
2022/06/14 05:58:19;;;;;;;33.67;10.33;;;;;;;21.05;100.00;101057.00;6188433;23;20418;-89
2022/06/14 06:01:09;;;;;;;34.63;12.27;;;;;;;21.10;100.00;101059.88;6138594;23;20713;-89
2022/06/14 06:04:18;;;;;;;27.80;9.97;;;;;;;21.15;100.00;101071.06;6162617;23;20407;-89
2022/06/14 06:06:58;;;;;;;29.70;10.93;;;;;;;21.26;100.00;101074.84;6187468;23;20498;-89
2022/06/14 06:10:02;;;;;;;29.47;9.37;;;;;;;21.34;100.00;101069.72;6163329;23;20412;-90
2022/06/14 06:12:37;;;;;;;21.60;9.17;;;;;;;21.43;100.00;101064.53;6140660;23;20443;-90
2022/06/14 06:25:38;;;;;;;28.30;10.10;;;;;;;21.61;100.00;101032.75;6188965;23;20934;-90
2022/06/14 06:36:21;;;;;;;28.43;9.80;;;;;;;21.62;99.46;101009.41;6187792;23;20373;-91
2022/06/14 06:39:10;;;;;;;27.03;8.27;;;;;;;21.84;98.49;101046.41;6122122;23;20412;-90
2022/06/14 06:42:21;;;;;;;25.97;8.73;;;;;;;21.86;98.14;101057.25;6162009;23;20462;-91
2022/06/14 06:45:01;;;;;;;36.40;9.30;;;;;;;21.83;97.96;101041.94;6139729;23;20457;-90
2022/06/14 06:47:32;;;;;;;38.70;9.30;;;;;;;21.90;98.31;101041.72;6132545;23;20872;-91
2022/06/14 06:50:07;;;;;;;25.10;8.17;;;;;;;21.93;98.09;101024.50;6107740;23;20982;-90
2022/06/14 06:52:41;;;;;;;34.27;9.30;;;;;;;21.94;97.76;101038.13;6016693;23;20396;-91
2022/06/14 06:55:27;;;;;;;27.40;8.43;;;;;;;21.98;97.25;101056.00;6039709;23;20496;-90
2022/06/14 06:57:55;;;;;;;26.23;8.50;;;;;;;21.98;97.13;101033.72;5970679;23;20495;-90
2022/06/14 07:00:23;;;;;;;23.17;8.27;;;;;;;22.07;97.05;101019.38;5970141;23;20440;-87
2022/06/14 07:03:01;;;;;;;32.33;8.60;;;;;;;22.11;96.54;101042.81;5968496;23;20417;-87
2022/06/14 07:05:29;;;;;;;25.63;8.53;;;;;;;22.17;96.24;101037.03;6014110;23;20520;-87
2022/06/14 16:24:12;;;;;;;16.43;3.80;;;;;;;32.26;46.64;101056.31;6159636;22;20448;-96
2022/06/14 16:27:25;;;;;;;14.50;3.90;;;;;;;32.03;46.95;101066.06;6115227;23;20467;-96
2022/06/14 17:34:42;;;;;;;15.80;4.30;;;;;;;29.11;54.79;101040.00;6123444;23;20409;-96
2022/06/14 17:40:43;;;;;;;18.00;5.30;;;;;;;28.73;55.81;101034.47;6186666;23;20439;-96
2022/06/14 17:44:11;;;;;;;16.70;3.90;;;;;;;28.67;56.52;101055.38;6115165;23;20443;-96
2022/06/14 17:47:10;;;;;;;25.33;5.20;;;;;;;28.50;56.89;101046.66;6160991;23;20406;-96
2022/06/14 17:50:33;;;;;;;22.50;5.43;;;;;;;28.38;58.01;101063.19;6163627;23;20427;-96
2022/06/14 17:53:45;;;;;;;16.30;4.87;;;;;;;28.22;57.48;101056.97;6156918;23;20408;-96
2022/06/14 17:56:24;;;;;;;15.73;4.37;;;;;;;28.21;58.26;101060.91;6023580;23;20423;-96
2022/06/14 17:59:11;;;;;;;18.33;5.13;;;;;;;27.97;58.37;101052.53;6077076;23;20508;-96
2022/06/14 18:02:07;;;;;;;12.20;5.10;;;;;;;27.71;59.39;101039.97;6160642;23;20413;-96
2022/06/14 18:11:25;;;;;;;16.33;4.90;;;;;;;27.10;61.63;101058.34;6190560;23;20484;-96
2022/06/14 18:17:46;;;;;;;10.90;3.83;;;;;;;26.74;62.98;101052.22;6188495;23;20426;-96
2022/06/14 18:21:00;;;;;;;22.60;5.87;;;;;;;26.78;63.12;101072.91;6140200;23;20734;-96
2022/06/14 18:31:04;;;;;;;25.60;6.20;;;;;;;26.13;65.67;101074.25;6188697;23;20383;-96
2022/06/14 18:37:41;;;;;;;19.97;6.43;;;;;;;25.71;66.91;101046.72;6189027;23;20764;-96
2022/06/14 18:40:48;;;;;;;17.83;5.20;;;;;;;25.75;67.61;101073.03;6114680;23;20408;-96
2022/06/14 18:43:58;;;;;;;22.27;6.63;;;;;;;25.69;67.65;101072.22;6162583;23;20419;-96
2022/06/14 18:46:53;;;;;;;20.47;5.67;;;;;;;25.53;68.29;101055.75;6073680;23;20446;-96
2022/06/14 18:50:04;;;;;;;19.60;5.47;;;;;;;25.45;69.05;101076.75;6054203;23;20453;-96
2022/06/14 18:52:36;;;;;;;18.37;6.30;;;;;;;25.27;69.82;101058.63;6074177;23;20410;-96
2022/06/14 18:55:13;;;;;;;23.10;6.03;;;;;;;25.31;69.89;101070.91;6051290;23;20418;-96
2022/06/14 18:58:26;;;;;;;25.80;6.03;;;;;;;25.16;70.32;101056.97;6051086;23;20418;-95
2022/06/14 19:08:50;;;;;;;24.87;6.07;;;;;;;24.55;72.93;101051.41;6075226;23;20428;-96
2022/06/14 19:14:45;;;;;;;16.53;5.37;;;;;;;24.36;73.88;101041.91;6096738;22;20390;-96
2022/06/14 19:17:30;;;;;;;30.77;7.07;;;;;;;24.35;74.36;101057.00;6025288;23;20979;-96
2022/06/14 19:23:27;;;;;;;18.93;5.57;;;;;;;24.22;75.17;101060.31;6040369;23;20456;-96
2022/06/14 19:30:05;;;;;;;23.67;6.13;;;;;;;23.87;76.59;101049.88;6115901;23;20474;-96
2022/06/14 19:33:16;;;;;;;21.43;5.50;;;;;;;23.85;77.28;101052.97;6173031;23;20745;-96
2022/06/14 19:36:01;;;;;;;24.30;6.63;;;;;;;23.77;77.15;101045.09;6192600;23;20408;-96
2022/06/14 19:42:42;;;;;;;26.07;6.23;;;;;;;23.70;77.55;101053.72;6191433;23;20384;-96
2022/06/14 19:45:18;;;;;;;20.87;5.80;;;;;;;23.50;78.25;101041.59;6143474;23;20439;-96
2022/06/14 19:48:13;;;;;;;17.30;5.20;;;;;;;23.53;78.67;101052.25;6165027;23;20541;-96
2022/06/14 19:54:03;;;;;;;15.20;6.10;;;;;;;23.53;78.69;101035.50;6189852;23;20408;-96
2022/06/14 19:57:12;;;;;;;14.87;5.23;;;;;;;23.49;78.84;101020.41;6166166;23;20411;-96
2022/06/14 20:00:25;;;;;;;23.60;5.70;;;;;;;23.41;79.25;100996.66;6163090;23;20411;-96
2022/06/14 20:03:19;;;;;;;26.20;6.10;;;;;;;23.36;79.16;100977.94;6167097;23;20404;-95
2022/06/14 20:13:12;;;;;;;22.73;5.37;;;;;;;23.11;80.80;101047.53;6191017;23;20395;-96
2022/06/14 20:16:06;;;;;;;17.57;5.00;;;;;;;23.25;80.54;101068.28;6117652;23;20458;-96
2022/06/14 20:18:57;;;;;;;24.13;6.27;;;;;;;23.27;80.69;101040.97;6164977;23;20489;-95
2022/06/14 20:21:45;;;;;;;16.20;5.50;;;;;;;23.22;80.70;101046.50;6165364;23;20740;-96
2022/06/14 20:24:33;;;;;;;20.30;5.33;;;;;;;23.20;80.67;101048.72;6144286;23;20435;-96
2022/06/14 20:27:32;;;;;;;25.03;5.80;;;;;;;23.14;80.85;101035.84;6141235;23;20420;-96
2022/06/14 20:30:03;;;;;;;23.83;5.97;;;;;;;23.11;80.85;101052.28;6161692;23;20440;-95
2022/06/14 20:36:38;;;;;;;16.67;6.27;;;;;;;23.07;81.45;101069.56;6190990;23;20407;-96
2022/06/14 20:42:45;;;;;;;19.20;6.37;;;;;;;23.12;81.67;101099.41;6191237;23;20419;-96
2022/06/14 20:45:41;;;;;;;21.90;7.47;;;;;;;23.16;81.78;101088.56;6144035;23;20694;-95
2022/06/14 20:48:37;;;;;;;13.90;6.00;;;;;;;23.12;81.64;101093.84;6167344;23;20408;-96
2022/06/14 20:51:32;;;;;;;25.73;6.50;;;;;;;23.06;81.94;101095.78;6163045;23;20408;-96
2022/06/14 20:54:29;;;;;;;21.43;6.13;;;;;;;23.04;82.11;101103.56;6162398;23;20411;-96
2022/06/14 20:57:02;;;;;;;25.47;7.30;;;;;;;23.06;81.85;101094.94;6162886;23;20410;-96
2022/06/14 20:59:31;;;;;;;21.30;6.83;;;;;;;22.93;81.83;101095.38;6165935;23;20404;-96
2022/06/14 21:02:18;;;;;;;21.33;6.70;;;;;;;23.03;82.07;101095.47;6139024;23;20463;-96
2022/06/14 21:08:46;;;;;;;20.53;6.40;;;;;;;22.84;82.69;101083.06;6191549;23;20375;-96
2022/06/14 21:14:59;;;;;;;20.20;7.23;;;;;;;22.87;82.85;101083.38;6187985;23;20446;-96
2022/06/14 21:17:28;;;;;;;24.60;7.70;;;;;;;22.85;82.32;101071.66;6136862;23;20412;-96
2022/06/14 21:23:52;;;;;;;25.63;7.13;;;;;;;22.70;82.46;101008.25;6187590;23;20427;-96
2022/06/14 21:30:02;;;;;;;22.43;7.33;;;;;;;22.66;83.42;100958.88;6187379;23;20418;-96
2022/06/14 21:36:11;;;;;;;27.10;7.10;;;;;;;22.56;83.51;101006.16;6187194;23;20351;-96
2022/06/14 21:42:23;;;;;;;24.87;8.07;;;;;;;22.61;84.18;101025.72;6187714;23;20368;-96
2022/06/14 21:48:31;;;;;;;21.93;7.77;;;;;;;22.55;83.90;101080.53;6186894;23;20874;-96
2022/06/14 21:54:57;;;;;;;25.63;7.77;;;;;;;22.82;84.09;101088.91;6188878;23;20367;-96
2022/06/14 21:57:47;;;;;;;22.17;6.50;;;;;;;22.92;83.28;101082.53;6138271;23;20953;-96
2022/06/14 22:03:36;;;;;;;20.47;6.87;;;;;;;22.96;83.06;101084.53;6188964;23;20395;-96
2022/06/14 22:06:13;;;;;;;20.93;7.70;;;;;;;23.03;82.95;101078.75;6115970;23;20466;-96
2022/06/14 22:12:29;;;;;;;16.00;6.97;;;;;;;22.79;82.31;101039.25;6188961;23;20402;-95
2022/06/14 22:18:39;;;;;;;18.60;8.23;;;;;;;22.70;82.62;101046.41;6189982;23;20756;-96
2022/06/14 22:21:40;;;;;;;16.53;6.33;;;;;;;22.83;82.81;101073.00;6117529;23;20451;-96
2022/06/14 22:24:39;;;;;;;19.13;6.80;;;;;;;22.78;83.10;101062.66;6163684;23;20438;-96
2022/06/14 22:27:29;;;;;;;29.57;7.77;;;;;;;22.79;83.25;101066.28;6146595;23;20454;-96
2022/06/14 22:30:00;;;;;;;22.20;6.87;;;;;;;22.77;83.25;101063.75;6161955;23;20447;-89
2022/06/14 22:32:28;;;;;;;21.33;7.00;;;;;;;22.70;83.44;101052.84;6162568;23;20499;-90
2022/06/14 22:35:08;;;;;;;24.77;7.30;;;;;;;22.71;83.27;101048.91;6139859;23;20474;-90
2022/06/14 22:37:40;;;;;;;22.10;6.73;;;;;;;22.66;83.75;101043.31;6141335;23;20395;-90
2022/06/14 22:40:12;;;;;;;28.90;7.60;;;;;;;22.69;83.38;101067.88;6141026;23;20396;-90
2022/06/14 22:42:44;;;;;;;22.70;6.97;;;;;;;22.78;83.76;101073.81;6139770;23;20492;-89
2022/06/14 22:45:33;;;;;;;21.83;7.90;;;;;;;22.81;83.34;101058.50;6139116;23;20412;-90
2022/06/14 22:48:09;;;;;;;18.73;6.60;;;;;;;22.77;83.29;101060.09;6163432;23;20385;-90
2022/06/14 22:50:38;;;;;;;23.63;6.83;;;;;;;22.72;83.34;101058.94;6142214;23;20440;-91
2022/06/14 22:53:13;;;;;;;32.73;7.40;;;;;;;22.73;83.25;101070.94;6114071;23;20396;-91
2022/06/14 22:55:51;;;;;;;24.03;7.60;;;;;;;22.84;83.14;101108.16;6137952;23;20431;-91
2022/06/14 22:58:38;;;;;;;26.70;7.57;;;;;;;22.86;83.04;101103.16;6186471;23;20808;-91
2022/06/14 23:01:12;;;;;;;22.20;6.70;;;;;;;22.87;83.50;101097.31;6136751;23;20392;-91
2022/06/14 23:03:42;;;;;;;22.07;6.83;;;;;;;22.89;83.29;101094.25;6162466;23;20396;-90
2022/06/14 23:06:18;;;;;;;21.90;6.67;;;;;;;22.87;83.04;101091.72;6139021;23;20499;-91
2022/06/14 23:08:52;;;;;;;17.50;5.77;;;;;;;22.91;82.94;101108.75;6113901;23;20417;-91
2022/06/14 23:11:20;;;;;;;24.70;6.53;;;;;;;22.90;82.67;101115.44;6187178;23;20439;-90
2022/06/14 23:13:51;;;;;;;24.63;6.73;;;;;;;22.96;82.98;101128.31;6137140;23;20506;-90
2022/06/14 23:16:28;;;;;;;20.90;6.87;;;;;;;22.92;82.68;101138.31;6162134;23;20391;-91
2022/06/14 23:19:03;;;;;;;19.90;7.40;;;;;;;22.95;82.75;101137.78;6161675;23;20621;-90
2022/06/14 23:21:34;;;;;;;26.70;7.67;;;;;;;22.97;82.91;101147.56;6137006;23;20411;-91
2022/06/14 23:24:07;;;;;;;25.47;7.37;;;;;;;22.94;82.90;101153.66;6138947;23;20462;-91
2022/06/14 23:26:44;;;;;;;26.43;6.87;;;;;;;22.96;82.72;101161.75;6138026;23;20450;-91
2022/06/14 23:29:13;;;;;;;32.17;8.27;;;;;;;22.93;82.60;101139.97;6161916;23;20760;-91
2022/06/14 23:31:41;;;;;;;19.43;7.63;;;;;;;22.87;83.02;101146.66;6089412;23;20434;-91
2022/06/14 23:34:18;;;;;;;19.70;6.77;;;;;;;22.90;83.17;101148.91;6107945;23;20432;-91
2022/06/14 23:36:46;;;;;;;22.43;7.30;;;;;;;22.87;83.08;101141.06;6132446;23;20413;-91
2022/06/14 23:39:16;;;;;;;23.13;7.53;;;;;;;22.87;83.30;101135.50;6108360;23;20397;-91
2022/06/14 23:41:53;;;;;;;24.70;7.27;;;;;;;22.89;83.05;101141.66;6108439;23;20396;-91
2022/06/14 23:44:25;;;;;;;39.10;8.30;;;;;;;22.83;83.00;101139.91;6133572;23;20464;-90
2022/06/14 23:46:53;;;;;;;23.13;7.50;;;;;;;22.85;83.08;101157.22;6121605;23;20500;-90
2022/06/14 23:49:23;;;;;;;24.43;6.97;;;;;;;22.83;83.26;101163.06;6126337;23;20464;-90
2022/06/14 23:51:50;;;;;;;30.77;7.30;;;;;;;22.79;83.27;101163.84;6125323;23;20504;-90
2022/06/14 23:54:20;;;;;;;25.07;7.03;;;;;;;22.85;83.57;101160.00;6125430;23;20409;-90
2022/06/14 23:56:47;;;;;;;30.03;8.73;;;;;;;22.86;83.64;101153.31;6144382;23;20476;-90
2022/06/14 23:59:19;;;;;;;24.27;7.73;;;;;;;22.86;84.41;101159.75;6107111;23;20413;-90
